createdAt,value
2023-05-28T00:01:07.369Z,38.85
2023-05-28T00:03:36.693Z,38.65
2023-05-28T00:06:05.234Z,38.52
2023-05-28T00:08:32.449Z,38.58
2023-05-28T00:11:02.749Z,38.55
2023-05-28T00:13:31.143Z,38.67
2023-05-28T00:15:58.515Z,38.87
2023-05-28T00:18:25.859Z,38.54
2023-05-28T00:20:53.113Z,38.80
2023-05-28T00:23:20.583Z,38.80
2023-05-28T00:25:47.918Z,38.56
2023-05-28T00:28:15.328Z,38.73
2023-05-28T00:30:42.676Z,38.89
2023-05-28T00:33:10.189Z,38.65
2023-05-28T00:35:37.621Z,38.82
2023-05-28T00:38:04.938Z,38.58
2023-05-28T00:40:32.220Z,38.80
2023-05-28T00:42:59.445Z,38.84
2023-05-28T00:45:26.703Z,38.80
2023-05-28T00:47:54.445Z,38.72
2023-05-28T00:50:21.805Z,38.89
2023-05-28T00:52:49.844Z,38.81
2023-05-28T00:55:17.412Z,38.88
2023-05-28T00:57:46.522Z,38.67
2023-05-28T01:00:15.104Z,38.89
2023-05-28T01:02:42.546Z,38.94
2023-05-28T01:05:10.599Z,38.75
2023-05-28T01:07:37.906Z,38.73
2023-05-28T01:10:06.019Z,39.09
2023-05-28T01:12:33.748Z,38.94
2023-05-28T01:15:01.052Z,39.03
2023-05-28T01:17:29.267Z,38.88
2023-05-28T01:19:56.540Z,38.57
2023-05-28T01:22:28.842Z,38.93
2023-05-28T01:24:56.149Z,38.89
2023-05-28T01:27:23.538Z,38.97
2023-05-28T01:29:50.819Z,38.79
2023-05-28T01:32:18.004Z,39.11
2023-05-28T01:34:45.674Z,39.00
2023-05-28T01:37:14.143Z,39.18
2023-05-28T01:39:46.515Z,38.95
2023-05-28T01:42:13.899Z,39.01
2023-05-28T01:44:42.681Z,39.26
2023-05-28T01:47:11.667Z,39.44
2023-05-28T01:49:39.856Z,39.10
2023-05-28T01:52:07.739Z,39.24
2023-05-28T01:54:36.001Z,39.16
2023-05-28T01:57:03.305Z,39.36
2023-05-28T01:59:31.045Z,39.27
2023-05-28T02:01:58.420Z,39.50
2023-05-28T02:04:26.128Z,39.44
2023-05-28T02:06:53.410Z,39.33
2023-05-28T02:09:20.651Z,39.31
2023-05-28T02:11:48.073Z,39.32
2023-05-28T02:14:15.770Z,39.21
2023-05-28T02:16:50.354Z,39.29
2023-05-28T02:19:18.377Z,39.56
2023-05-28T02:21:45.775Z,39.39
2023-05-28T02:24:13.065Z,39.62
2023-05-28T02:26:40.348Z,39.57
2023-05-28T02:29:07.607Z,39.62
2023-05-28T02:31:34.873Z,39.57
2023-05-28T02:34:02.104Z,39.71
2023-05-28T02:36:30.958Z,39.51
2023-05-28T02:38:58.239Z,39.60
2023-05-28T02:41:27.144Z,39.81
2023-05-28T02:43:54.863Z,39.64
2023-05-28T02:46:22.167Z,39.87
2023-05-28T02:48:49.865Z,39.84
2023-05-28T02:51:17.135Z,39.79
2023-05-28T02:53:44.360Z,39.94
2023-05-28T02:56:11.619Z,39.88
2023-05-28T02:58:38.868Z,39.99
2023-05-28T03:01:07.375Z,39.60
2023-05-28T03:03:34.800Z,40.11
2023-05-28T03:06:02.771Z,39.95
2023-05-28T03:08:30.073Z,39.80
2023-05-28T03:10:57.311Z,39.97
2023-05-28T03:13:24.561Z,40.06
2023-05-28T03:15:52.111Z,40.08
2023-05-28T03:18:19.640Z,40.11
2023-05-28T03:20:46.946Z,39.85
2023-05-28T03:23:14.176Z,40.05
2023-05-28T03:25:41.409Z,40.26
2023-05-28T03:28:09.025Z,39.90
2023-05-28T03:30:36.255Z,40.16
2023-05-28T03:33:03.508Z,40.11
2023-05-28T03:35:30.752Z,40.16
2023-05-28T03:37:57.975Z,40.16
2023-05-28T03:40:25.449Z,40.04
2023-05-28T03:42:52.674Z,40.26
2023-05-28T03:45:19.904Z,39.91
2023-05-28T03:47:47.170Z,39.93
2023-05-28T03:50:14.424Z,40.29
2023-05-28T03:52:41.939Z,40.25
2023-05-28T03:55:09.571Z,40.08
2023-05-28T03:57:37.539Z,40.02
2023-05-28T04:00:05.983Z,39.99
2023-05-28T04:02:33.323Z,40.09
2023-05-28T04:05:00.716Z,40.29
2023-05-28T04:07:28.073Z,40.24
2023-05-28T04:09:55.442Z,40.15
2023-05-28T04:12:22.729Z,39.97
2023-05-28T04:14:50.051Z,40.25
2023-05-28T04:17:17.383Z,40.26
2023-05-28T04:19:44.816Z,40.24
2023-05-28T04:22:12.031Z,40.23
2023-05-28T04:24:39.293Z,40.33
2023-05-28T04:27:07.704Z,40.29
2023-05-28T04:29:35.078Z,40.00
2023-05-28T04:32:02.419Z,40.20
2023-05-28T04:34:29.676Z,40.17
2023-05-28T04:36:57.741Z,40.12
2023-05-28T04:39:25.265Z,40.17
2023-05-28T04:41:54.775Z,40.17
2023-05-28T04:44:26.926Z,40.18
2023-05-28T04:46:54.491Z,40.23
2023-05-28T04:49:21.774Z,40.13
2023-05-28T04:51:49.028Z,40.34
2023-05-28T04:54:16.279Z,40.37
2023-05-28T04:56:43.559Z,40.14
2023-05-28T04:59:11.096Z,40.13
2023-05-28T05:01:40.147Z,40.15
2023-05-28T05:04:08.130Z,40.49
2023-05-28T05:06:35.612Z,40.29
2023-05-28T05:09:04.645Z,40.19
2023-05-28T05:11:32.023Z,40.44
2023-05-28T05:13:59.262Z,40.31
2023-05-28T05:16:26.528Z,40.05
2023-05-28T05:18:53.779Z,40.13
2023-05-28T05:21:21.543Z,40.28
2023-05-28T05:23:50.042Z,39.91
2023-05-28T05:26:18.198Z,40.35
2023-05-28T05:28:46.085Z,40.03
2023-05-28T05:31:15.890Z,40.19
2023-05-28T05:33:43.169Z,40.12
2023-05-28T05:36:11.760Z,40.13
2023-05-28T05:38:39.394Z,40.17
2023-05-28T05:41:06.693Z,40.28
2023-05-28T05:43:34.075Z,40.05
2023-05-28T05:46:01.350Z,40.03
2023-05-28T05:48:29.042Z,39.60
2023-05-28T05:50:56.720Z,39.76
2023-05-28T05:53:24.819Z,39.33
2023-05-28T05:55:52.478Z,39.63
2023-05-28T05:58:19.962Z,39.62
2023-05-28T06:00:48.871Z,39.71
2023-05-28T06:03:16.193Z,39.36
2023-05-28T06:05:43.522Z,39.47
2023-05-28T06:08:11.118Z,39.71
2023-05-28T06:10:38.334Z,39.69
2023-05-28T06:13:05.599Z,39.75
2023-05-28T06:15:33.142Z,39.25
2023-05-28T06:18:01.503Z,39.76
2023-05-28T06:20:28.939Z,39.77
2023-05-28T06:22:57.051Z,39.42
2023-05-28T06:25:24.369Z,39.97
2023-05-28T06:27:52.260Z,39.56
2023-05-28T06:30:19.693Z,39.70
2023-05-28T06:32:47.074Z,39.86
2023-05-28T06:35:14.593Z,40.29
2023-05-28T06:37:41.865Z,40.52
2023-05-28T06:40:11.738Z,40.44
2023-05-28T06:42:41.971Z,40.67
2023-05-28T06:45:09.974Z,40.66
2023-05-28T06:47:37.463Z,40.74
2023-05-28T06:50:07.960Z,40.47
2023-05-28T06:52:35.275Z,40.68
2023-05-28T06:55:02.542Z,40.62
2023-05-28T06:57:29.917Z,40.76
2023-05-28T06:59:57.153Z,40.55
2023-05-28T07:02:24.556Z,40.44
2023-05-28T07:04:52.137Z,41.49
2023-05-28T07:07:19.744Z,42.04
2023-05-28T07:09:47.038Z,42.01
2023-05-28T07:12:14.353Z,41.61
2023-05-28T07:14:41.619Z,41.30
2023-05-28T07:17:09.004Z,41.00
2023-05-28T07:19:39.529Z,40.78
2023-05-28T07:22:06.748Z,40.84
2023-05-28T07:24:34.007Z,40.46
2023-05-28T07:27:01.894Z,40.69
2023-05-28T07:29:29.165Z,40.36
2023-05-28T07:31:56.871Z,40.23
2023-05-28T07:34:27.453Z,40.03
2023-05-28T07:36:54.721Z,40.15
2023-05-28T07:39:22.001Z,40.45
2023-05-28T07:41:49.551Z,40.40
2023-05-28T07:44:16.894Z,40.19
2023-05-28T07:46:44.546Z,40.02
2023-05-28T07:49:11.963Z,40.15
2023-05-28T07:51:39.270Z,40.02
2023-05-28T07:54:06.798Z,38.26
2023-05-28T07:56:34.070Z,36.19
2023-05-28T07:59:01.331Z,35.83
2023-05-28T08:01:28.684Z,35.83
2023-05-28T08:03:56.266Z,36.03
2023-05-28T08:06:23.594Z,36.02
2023-05-28T08:08:50.931Z,36.11
2023-05-28T08:11:18.389Z,36.28
2023-05-28T08:13:45.944Z,36.41
2023-05-28T08:16:13.594Z,36.80
2023-05-28T08:18:41.686Z,36.75
2023-05-28T08:21:09.358Z,36.78
2023-05-28T08:23:37.120Z,37.08
2023-05-28T08:26:04.717Z,36.98
2023-05-28T08:28:32.170Z,37.21
2023-05-28T08:30:59.483Z,37.22
2023-05-28T08:33:26.779Z,37.21
2023-05-28T08:35:54.380Z,37.42
2023-05-28T08:38:21.986Z,37.38
2023-05-28T08:40:56.493Z,37.22
2023-05-28T08:43:24.412Z,38.33
2023-05-28T08:45:55.103Z,39.94
2023-05-28T08:48:23.822Z,39.89
2023-05-28T08:50:54.813Z,39.26
2023-05-28T08:53:23.540Z,39.50
2023-05-28T08:55:51.670Z,39.27
2023-05-28T08:58:19.665Z,38.77
2023-05-28T09:00:48.124Z,37.47
2023-05-28T09:03:15.962Z,38.07
2023-05-28T09:05:43.344Z,37.77
2023-05-28T09:08:11.818Z,37.10
2023-05-28T09:10:40.203Z,36.91
2023-05-28T09:13:08.024Z,37.07
2023-05-28T09:15:37.230Z,36.64
2023-05-28T09:18:07.249Z,36.64
2023-05-28T09:20:34.976Z,36.00
2023-05-28T09:23:07.589Z,35.72
2023-05-28T09:25:37.493Z,35.80
2023-05-28T09:28:05.262Z,36.06
2023-05-28T09:30:36.947Z,35.53
2023-05-28T09:33:08.680Z,35.91
2023-05-28T09:35:36.690Z,35.50
2023-05-28T09:38:13.337Z,35.49
2023-05-28T09:40:41.562Z,35.76
2023-05-28T09:43:09.826Z,35.30
2023-05-28T09:45:37.429Z,35.57
2023-05-28T09:48:05.382Z,35.42
2023-05-28T09:50:33.043Z,35.69
2023-05-28T09:53:01.296Z,35.13
2023-05-28T09:55:29.559Z,35.23
2023-05-28T09:58:04.037Z,35.08
2023-05-28T10:00:43.234Z,35.10
2023-05-28T10:03:30.148Z,35.27
2023-05-28T10:06:05.174Z,34.93
2023-05-28T10:08:38.515Z,34.74
2023-05-28T10:11:14.110Z,34.80
2023-05-28T10:13:41.980Z,34.67
2023-05-28T10:16:10.127Z,34.53
2023-05-28T10:18:39.511Z,34.54
2023-05-28T10:21:09.252Z,34.67
2023-05-28T10:23:37.056Z,34.38
2023-05-28T10:26:05.281Z,34.02
2023-05-28T10:28:32.908Z,33.82
2023-05-28T10:31:05.426Z,34.03
2023-05-28T10:33:34.068Z,34.11
2023-05-28T10:36:02.070Z,34.04
2023-05-28T10:38:30.979Z,33.80
2023-05-28T10:41:04.644Z,33.36
2023-05-28T10:43:46.441Z,33.97
2023-05-28T10:46:16.545Z,33.50
2023-05-28T10:49:06.148Z,33.26
2023-05-28T10:52:00.921Z,33.13
2023-05-28T10:54:31.233Z,32.78
2023-05-28T10:57:15.437Z,32.64
2023-05-28T11:00:02.101Z,32.87
2023-05-28T11:02:34.313Z,32.62
2023-05-28T11:05:05.341Z,32.63
2023-05-28T11:07:42.478Z,33.04
2023-05-28T11:10:13.787Z,32.61
2023-05-28T11:12:42.831Z,32.23
2023-05-28T11:15:12.061Z,32.58
2023-05-28T11:17:40.512Z,32.67
2023-05-28T11:20:19.753Z,32.86
2023-05-28T11:22:47.500Z,33.20
2023-05-28T11:25:15.169Z,32.46
2023-05-28T11:27:42.677Z,32.60
2023-05-28T11:30:10.541Z,32.58
2023-05-28T11:32:37.893Z,32.79
2023-05-28T11:35:07.568Z,32.70
2023-05-28T11:37:36.439Z,33.49
2023-05-28T11:40:06.675Z,34.03
2023-05-28T11:42:34.463Z,34.74
2023-05-28T11:45:01.930Z,34.58
2023-05-28T11:47:32.160Z,35.09
2023-05-28T11:49:59.606Z,33.89
2023-05-28T11:52:27.746Z,33.40
2023-05-28T11:54:57.988Z,33.36
2023-05-28T11:57:34.694Z,33.55
2023-05-28T12:00:13.434Z,33.93
2023-05-28T12:02:45.386Z,34.36
2023-05-28T12:05:13.319Z,34.64
2023-05-28T12:07:46.635Z,34.82
2023-05-28T12:10:16.061Z,34.60
2023-05-28T12:12:45.536Z,34.50
2023-05-28T12:15:13.471Z,34.65
2023-05-28T12:17:43.159Z,34.56
2023-05-28T12:20:16.224Z,34.70
2023-05-28T12:22:44.191Z,35.26
2023-05-28T12:25:12.237Z,34.96
2023-05-28T12:27:39.912Z,35.04
2023-05-28T12:30:08.072Z,35.16
2023-05-28T12:32:38.361Z,35.15
2023-05-28T12:35:05.997Z,35.26
2023-05-28T12:37:33.938Z,35.03
2023-05-28T12:40:01.352Z,35.27
2023-05-28T12:42:28.635Z,35.41
2023-05-28T12:44:56.196Z,35.40
2023-05-28T12:47:23.492Z,35.21
2023-05-28T12:49:51.039Z,35.22
2023-05-28T12:52:18.316Z,35.49
2023-05-28T12:54:45.706Z,34.99
2023-05-28T12:57:12.960Z,34.94
2023-05-28T12:59:40.524Z,35.11
2023-05-28T13:02:07.973Z,35.11
2023-05-28T13:04:36.649Z,34.98
2023-05-28T13:07:04.752Z,34.83
2023-05-28T13:09:32.016Z,34.80
2023-05-28T13:11:59.228Z,35.45
2023-05-28T13:14:27.089Z,34.95
2023-05-28T13:16:56.641Z,34.87
2023-05-28T13:19:23.917Z,34.80
2023-05-28T13:21:51.596Z,35.17
2023-05-28T13:24:19.069Z,34.99
2023-05-28T13:26:46.308Z,35.13
2023-05-28T13:29:13.574Z,35.21
2023-05-28T13:31:41.344Z,35.34
2023-05-28T13:34:08.684Z,35.29
2023-05-28T13:36:37.099Z,35.33
2023-05-28T13:39:05.292Z,35.52
2023-05-28T13:41:32.856Z,35.42
2023-05-28T13:44:02.074Z,35.40
2023-05-28T13:46:29.484Z,35.36
2023-05-28T13:48:57.255Z,35.61
2023-05-28T13:51:24.631Z,35.53
2023-05-28T13:53:52.462Z,35.31
2023-05-28T13:56:19.759Z,35.52
2023-05-28T13:58:47.019Z,35.52
2023-05-28T14:01:14.561Z,35.45
2023-05-28T14:03:46.513Z,35.60
2023-05-28T14:06:14.698Z,35.57
2023-05-28T14:08:41.970Z,35.75
2023-05-28T14:11:09.554Z,35.68
2023-05-28T14:13:36.848Z,35.46
2023-05-28T14:16:04.152Z,35.75
2023-05-28T14:18:31.428Z,35.77
2023-05-28T14:20:59.047Z,35.82
2023-05-28T14:23:26.472Z,35.68
2023-05-28T14:25:54.308Z,35.48
2023-05-28T14:28:21.833Z,35.79
2023-05-28T14:30:49.101Z,35.63
2023-05-28T14:33:16.468Z,35.78
2023-05-28T14:35:43.775Z,35.51
2023-05-28T14:38:11.053Z,35.80
2023-05-28T14:40:38.312Z,35.67
2023-05-28T14:43:05.587Z,35.51
2023-05-28T14:45:33.047Z,35.73
2023-05-28T14:48:02.135Z,35.56
2023-05-28T14:50:29.555Z,35.55
2023-05-28T14:52:56.845Z,35.57
2023-05-28T14:55:24.142Z,35.90
2023-05-28T14:57:51.466Z,35.79
2023-05-28T15:00:18.820Z,36.04
2023-05-28T15:02:46.225Z,35.97
2023-05-28T15:05:13.589Z,35.88
2023-05-28T15:07:41.112Z,35.79
2023-05-28T15:10:08.771Z,35.72
2023-05-28T15:12:36.287Z,35.69
2023-05-28T15:15:04.733Z,35.95
2023-05-28T15:17:32.056Z,36.06
2023-05-28T15:19:59.376Z,36.30
2023-05-28T15:22:26.799Z,36.40
2023-05-28T15:24:54.156Z,36.29
2023-05-28T15:27:21.455Z,36.64
2023-05-28T15:29:49.085Z,36.64
2023-05-28T15:32:17.717Z,36.60
2023-05-28T15:34:45.109Z,36.70
2023-05-28T15:37:13.691Z,36.69
2023-05-28T15:39:41.084Z,36.78
2023-05-28T15:42:09.027Z,36.66
2023-05-28T15:44:36.621Z,36.75
2023-05-28T15:47:03.958Z,36.74
2023-05-28T15:49:31.461Z,36.89
2023-05-28T15:52:01.648Z,36.72
2023-05-28T15:54:29.192Z,36.99
2023-05-28T15:56:56.635Z,36.67
2023-05-28T15:59:24.043Z,37.15
2023-05-28T16:01:52.428Z,36.70
2023-05-28T16:04:22.089Z,36.86
2023-05-28T16:06:49.456Z,36.79
2023-05-28T16:09:16.776Z,37.11
2023-05-28T16:11:46.075Z,37.21
2023-05-28T16:14:16.973Z,37.08
2023-05-28T16:16:48.698Z,37.06
2023-05-28T16:19:16.272Z,37.03
2023-05-28T16:21:46.800Z,37.28
2023-05-28T16:24:15.762Z,37.10
2023-05-28T16:26:43.002Z,36.88
2023-05-28T16:29:10.357Z,37.32
2023-05-28T16:31:38.091Z,37.45
2023-05-28T16:34:05.636Z,37.15
2023-05-28T16:36:34.664Z,37.28
2023-05-28T16:39:03.311Z,37.37
2023-05-28T16:41:31.192Z,37.48
2023-05-28T16:43:58.688Z,37.01
2023-05-28T16:46:27.580Z,37.37
2023-05-28T16:48:55.524Z,37.40
2023-05-28T16:51:23.945Z,37.46
2023-05-28T16:53:51.888Z,37.44
2023-05-28T16:56:19.494Z,37.13
2023-05-28T16:58:48.245Z,37.55
2023-05-28T17:01:19.599Z,37.54
2023-05-28T17:03:47.252Z,37.47
2023-05-28T17:06:17.447Z,37.38
2023-05-28T17:08:46.146Z,37.52
2023-05-28T17:11:13.504Z,37.57
2023-05-28T17:13:40.713Z,37.54
2023-05-28T17:16:07.948Z,37.47
2023-05-28T17:18:35.193Z,37.35
2023-05-28T17:21:02.853Z,37.29
2023-05-28T17:23:30.290Z,37.51
2023-05-28T17:25:57.585Z,37.52
2023-05-28T17:28:25.002Z,37.34
2023-05-28T17:30:52.239Z,37.55
2023-05-28T17:33:19.457Z,37.68
2023-05-28T17:35:46.767Z,37.43
2023-05-28T17:38:14.058Z,37.26
2023-05-28T17:40:41.412Z,37.29
2023-05-28T17:43:08.688Z,37.43
2023-05-28T17:45:36.044Z,37.36
2023-05-28T17:48:04.355Z,37.63
2023-05-28T17:50:31.635Z,37.79
2023-05-28T17:52:58.878Z,37.67
2023-05-28T17:55:26.555Z,37.54
2023-05-28T17:57:53.985Z,37.53
2023-05-28T18:00:22.189Z,37.81
2023-05-28T18:02:54.775Z,37.50
2023-05-28T18:05:23.160Z,37.86
2023-05-28T18:07:50.449Z,37.89
2023-05-28T18:10:17.718Z,37.80
2023-05-28T18:12:44.980Z,37.88
2023-05-28T18:15:12.401Z,37.79
2023-05-28T18:17:40.011Z,37.62
2023-05-28T18:20:08.125Z,37.95
2023-05-28T18:22:35.490Z,38.05
2023-05-28T18:25:03.537Z,37.68
2023-05-28T18:27:30.815Z,37.95
2023-05-28T18:29:58.099Z,37.78
2023-05-28T18:32:25.420Z,37.69
2023-05-28T18:34:52.656Z,38.07
2023-05-28T18:37:19.914Z,37.84
2023-05-28T18:39:47.876Z,38.05
2023-05-28T18:42:15.110Z,38.06
2023-05-28T18:44:43.706Z,38.12
2023-05-28T18:47:11.254Z,37.82
2023-05-28T18:49:38.687Z,38.13
2023-05-28T18:52:08.797Z,37.81
2023-05-28T18:54:36.140Z,37.89
2023-05-28T18:57:03.494Z,38.12
2023-05-28T18:59:30.937Z,38.18
2023-05-28T19:02:01.234Z,38.29
2023-05-28T19:04:28.687Z,37.70
2023-05-28T19:06:56.954Z,37.89
2023-05-28T19:09:24.475Z,37.99
2023-05-28T19:11:51.722Z,37.97
2023-05-28T19:14:19.011Z,38.28
2023-05-28T19:16:46.430Z,38.33
2023-05-28T19:19:14.028Z,38.28
2023-05-28T19:21:41.314Z,38.33
2023-05-28T19:24:08.867Z,37.99
2023-05-28T19:26:36.761Z,38.38
2023-05-28T19:29:04.146Z,38.13
2023-05-28T19:31:31.405Z,38.08
2023-05-28T19:33:58.655Z,38.41
2023-05-28T19:36:26.054Z,38.29
2023-05-28T19:38:53.273Z,38.32
2023-05-28T19:41:20.649Z,38.43
2023-05-28T19:43:48.073Z,38.15
2023-05-28T19:46:18.203Z,38.68
2023-05-28T19:48:45.764Z,38.33
2023-05-28T19:51:13.573Z,38.46
2023-05-28T19:53:40.812Z,38.75
2023-05-28T19:56:08.069Z,38.60
2023-05-28T19:58:35.359Z,39.02
2023-05-28T20:01:02.693Z,39.30
2023-05-28T20:03:38.524Z,39.15
2023-05-28T20:06:06.554Z,39.61
2023-05-28T20:08:33.874Z,39.51
2023-05-28T20:11:01.110Z,39.35
2023-05-28T20:13:28.563Z,39.65
2023-05-28T20:15:56.008Z,39.43
2023-05-28T20:18:23.267Z,39.20
2023-05-28T20:20:50.635Z,39.55
2023-05-28T20:23:17.921Z,39.50
2023-05-28T20:25:45.700Z,39.37
2023-05-28T20:28:13.124Z,39.19
2023-05-28T20:30:40.394Z,39.26
2023-05-28T20:33:10.090Z,39.45
2023-05-28T20:35:37.511Z,39.50
2023-05-28T20:38:05.743Z,39.14
2023-05-28T20:40:36.253Z,39.30
2023-05-28T20:43:04.577Z,39.49
2023-05-28T20:45:36.907Z,39.51
2023-05-28T20:48:04.852Z,39.55
2023-05-28T20:50:32.535Z,39.44
2023-05-28T20:53:00.882Z,39.35
2023-05-28T20:55:28.154Z,39.23
2023-05-28T20:57:55.605Z,39.18
2023-05-28T21:00:23.612Z,39.31
2023-05-28T21:02:56.782Z,39.24
2023-05-28T21:05:24.849Z,39.38
2023-05-28T21:07:52.826Z,39.20
2023-05-28T21:10:20.136Z,39.28
2023-05-28T21:12:47.345Z,39.40
2023-05-28T21:15:16.161Z,39.00
2023-05-28T21:17:43.460Z,39.07
2023-05-28T21:20:11.314Z,39.07
2023-05-28T21:22:38.587Z,39.22
2023-05-28T21:25:06.235Z,39.10
2023-05-28T21:27:33.443Z,39.13
2023-05-28T21:30:01.296Z,39.32
2023-05-28T21:32:28.554Z,39.32
2023-05-28T21:34:55.938Z,39.47
2023-05-28T21:37:23.149Z,39.87
2023-05-28T21:39:51.383Z,39.97
2023-05-28T21:42:18.616Z,40.02
2023-05-28T21:44:45.886Z,40.40
2023-05-28T21:47:13.118Z,40.55
2023-05-28T21:49:40.382Z,40.21
2023-05-28T21:52:08.363Z,40.33
2023-05-28T21:54:35.909Z,40.60
2023-05-28T21:57:03.219Z,40.57
2023-05-28T21:59:31.033Z,40.47
2023-05-28T22:01:58.413Z,41.05
2023-05-28T22:04:25.773Z,40.93
2023-05-28T22:06:53.180Z,40.63
2023-05-28T22:09:20.930Z,41.29
2023-05-28T22:11:48.386Z,41.50
2023-05-28T22:14:21.536Z,40.94
2023-05-28T22:16:49.856Z,41.04
2023-05-28T22:19:18.347Z,41.24
2023-05-28T22:21:46.066Z,41.31
2023-05-28T22:24:13.381Z,41.41
2023-05-28T22:26:40.698Z,41.34
2023-05-28T22:29:08.263Z,41.53
2023-05-28T22:31:35.668Z,41.42
2023-05-28T22:34:03.525Z,41.83
2023-05-28T22:36:31.585Z,41.70
2023-05-28T22:38:59.036Z,42.00
2023-05-28T22:41:26.839Z,41.79
2023-05-28T22:43:54.213Z,41.69
2023-05-28T22:46:21.570Z,41.17
2023-05-28T22:48:50.080Z,41.37
2023-05-28T22:51:17.706Z,40.79
2023-05-28T22:53:45.480Z,40.76
2023-05-28T22:56:13.760Z,41.04
2023-05-28T22:58:42.198Z,40.96
2023-05-28T23:01:10.580Z,41.00
2023-05-28T23:03:38.751Z,40.85
2023-05-28T23:06:06.373Z,40.64
2023-05-28T23:08:33.760Z,40.70
2023-05-28T23:11:01.027Z,40.82
2023-05-28T23:13:28.225Z,40.69
2023-05-28T23:15:55.671Z,40.56
2023-05-28T23:18:23.059Z,40.66
2023-05-28T23:20:50.429Z,40.59
2023-05-28T23:23:17.998Z,40.71
2023-05-28T23:25:45.491Z,40.77
2023-05-28T23:28:12.720Z,40.49
2023-05-28T23:30:39.952Z,40.49
2023-05-28T23:33:07.214Z,40.70
2023-05-28T23:35:34.449Z,40.46
2023-05-28T23:38:01.693Z,40.49
2023-05-28T23:40:28.946Z,40.77
2023-05-28T23:42:57.572Z,40.37
2023-05-28T23:45:24.831Z,40.39
2023-05-28T23:47:52.082Z,40.62
2023-05-28T23:50:19.361Z,40.53
2023-05-28T23:52:46.630Z,40.43
2023-05-28T23:55:13.861Z,40.44
2023-05-28T23:57:41.512Z,40.33
